sensor_id;sensor_type;location;lat;lon;timestamp;temperature;humidity
4993;DHT22;2514;53.524;10.166;2022-07-03T00:00:30;18.70;1.00
4993;DHT22;2514;53.524;10.166;2022-07-03T00:02:57;18.70;1.00
4993;DHT22;2514;53.524;10.166;2022-07-03T00:05:24;18.70;1.00
4993;DHT22;2514;53.524;10.166;2022-07-03T00:07:51;18.50;1.00
4993;DHT22;2514;53.524;10.166;2022-07-03T00:10:18;18.40;1.00
4993;DHT22;2514;53.524;10.166;2022-07-03T00:12:45;18.30;1.00
4993;DHT22;2514;53.524;10.166;2022-07-03T00:15:12;18.20;1.00
4993;DHT22;2514;53.524;10.166;2022-07-03T00:17:41;18.10;1.00
4993;DHT22;2514;53.524;10.166;2022-07-03T00:20:08;18.10;1.00
4993;DHT22;2514;53.524;10.166;2022-07-03T00:22:40;18.20;1.00
4993;DHT22;2514;53.524;10.166;2022-07-03T00:25:08;18.30;1.00
4993;DHT22;2514;53.524;10.166;2022-07-03T00:27:38;18.40;1.00
4993;DHT22;2514;53.524;10.166;2022-07-03T00:30:06;18.50;1.00
4993;DHT22;2514;53.524;10.166;2022-07-03T00:32:38;18.50;1.00
4993;DHT22;2514;53.524;10.166;2022-07-03T00:35:07;18.60;1.00
4993;DHT22;2514;53.524;10.166;2022-07-03T00:37:34;18.70;1.00
4993;DHT22;2514;53.524;10.166;2022-07-03T00:40:02;18.80;1.00
4993;DHT22;2514;53.524;10.166;2022-07-03T00:42:30;18.80;1.00
4993;DHT22;2514;53.524;10.166;2022-07-03T00:44:57;18.90;1.00
4993;DHT22;2514;53.524;10.166;2022-07-03T00:47:26;18.90;1.00
4993;DHT22;2514;53.524;10.166;2022-07-03T00:49:55;18.90;1.00
4993;DHT22;2514;53.524;10.166;2022-07-03T00:52:24;18.90;1.00
4993;DHT22;2514;53.524;10.166;2022-07-03T00:54:53;18.90;1.00
4993;DHT22;2514;53.524;10.166;2022-07-03T00:57:22;18.90;1.00
4993;DHT22;2514;53.524;10.166;2022-07-03T00:59:49;18.90;1.00
4993;DHT22;2514;53.524;10.166;2022-07-03T01:02:27;18.90;1.00
4993;DHT22;2514;53.524;10.166;2022-07-03T01:05:08;18.90;1.00
4993;DHT22;2514;53.524;10.166;2022-07-03T01:07:44;18.80;1.00
4993;DHT22;2514;53.524;10.166;2022-07-03T01:10:18;18.80;1.00
4993;DHT22;2514;53.524;10.166;2022-07-03T01:12:55;18.80;1.00
4993;DHT22;2514;53.524;10.166;2022-07-03T01:15:33;18.80;1.00
4993;DHT22;2514;53.524;10.166;2022-07-03T01:18:10;18.80;1.00
4993;DHT22;2514;53.524;10.166;2022-07-03T01:20:41;18.80;1.00
4993;DHT22;2514;53.524;10.166;2022-07-03T01:23:20;18.80;1.00
4993;DHT22;2514;53.524;10.166;2022-07-03T01:25:52;18.80;1.00
4993;DHT22;2514;53.524;10.166;2022-07-03T01:28:22;18.80;1.00
4993;DHT22;2514;53.524;10.166;2022-07-03T01:30:51;18.80;1.00
4993;DHT22;2514;53.524;10.166;2022-07-03T01:33:19;18.80;1.00
4993;DHT22;2514;53.524;10.166;2022-07-03T01:35:58;18.80;1.00
4993;DHT22;2514;53.524;10.166;2022-07-03T01:38:32;18.90;1.00
4993;DHT22;2514;53.524;10.166;2022-07-03T01:41:02;18.90;1.00
4993;DHT22;2514;53.524;10.166;2022-07-03T01:43:30;18.80;1.00
4993;DHT22;2514;53.524;10.166;2022-07-03T01:45:59;18.90;1.00
4993;DHT22;2514;53.524;10.166;2022-07-03T01:48:27;18.80;1.00
4993;DHT22;2514;53.524;10.166;2022-07-03T01:50:55;18.80;1.00
4993;DHT22;2514;53.524;10.166;2022-07-03T01:53:24;18.80;1.00
4993;DHT22;2514;53.524;10.166;2022-07-03T01:55:54;18.90;1.00
4993;DHT22;2514;53.524;10.166;2022-07-03T01:58:24;18.90;1.00
4993;DHT22;2514;53.524;10.166;2022-07-03T02:00:59;18.90;1.00
4993;DHT22;2514;53.524;10.166;2022-07-03T02:03:29;18.90;1.00
4993;DHT22;2514;53.524;10.166;2022-07-03T02:06:03;18.80;1.00
4993;DHT22;2514;53.524;10.166;2022-07-03T02:08:43;18.70;1.00
4993;DHT22;2514;53.524;10.166;2022-07-03T02:11:13;18.80;1.00
4993;DHT22;2514;53.524;10.166;2022-07-03T02:13:52;18.80;1.00
4993;DHT22;2514;53.524;10.166;2022-07-03T02:16:22;18.80;1.00
4993;DHT22;2514;53.524;10.166;2022-07-03T02:18:56;18.80;1.00
4993;DHT22;2514;53.524;10.166;2022-07-03T02:21:26;18.80;1.00
4993;DHT22;2514;53.524;10.166;2022-07-03T02:24:03;18.80;1.00
4993;DHT22;2514;53.524;10.166;2022-07-03T02:26:33;18.80;1.00
4993;DHT22;2514;53.524;10.166;2022-07-03T02:29:04;18.80;1.00
4993;DHT22;2514;53.524;10.166;2022-07-03T02:31:37;18.80;1.00
4993;DHT22;2514;53.524;10.166;2022-07-03T02:34:07;18.80;1.00
4993;DHT22;2514;53.524;10.166;2022-07-03T02:36:35;18.80;1.00
4993;DHT22;2514;53.524;10.166;2022-07-03T02:39:04;18.90;1.00
4993;DHT22;2514;53.524;10.166;2022-07-03T02:41:42;18.80;1.00
4993;DHT22;2514;53.524;10.166;2022-07-03T02:44:21;18.80;1.00
4993;DHT22;2514;53.524;10.166;2022-07-03T02:46:59;18.90;1.00
4993;DHT22;2514;53.524;10.166;2022-07-03T02:49:50;18.90;99.90
4993;DHT22;2514;53.524;10.166;2022-07-03T02:52:28;18.90;99.90
4993;DHT22;2514;53.524;10.166;2022-07-03T02:55:00;18.90;99.90
4993;DHT22;2514;53.524;10.166;2022-07-03T02:57:35;18.90;99.90
4993;DHT22;2514;53.524;10.166;2022-07-03T03:00:06;18.90;99.90
4993;DHT22;2514;53.524;10.166;2022-07-03T03:02:52;18.90;99.90
4993;DHT22;2514;53.524;10.166;2022-07-03T03:05:29;18.80;99.90
4993;DHT22;2514;53.524;10.166;2022-07-03T03:08:04;18.90;99.90
4993;DHT22;2514;53.524;10.166;2022-07-03T03:10:35;18.80;99.90
4993;DHT22;2514;53.524;10.166;2022-07-03T03:13:04;18.80;99.90
4993;DHT22;2514;53.524;10.166;2022-07-03T03:15:34;18.70;99.90
4993;DHT22;2514;53.524;10.166;2022-07-03T03:18:03;18.70;99.90
4993;DHT22;2514;53.524;10.166;2022-07-03T03:20:32;18.60;99.90
4993;DHT22;2514;53.524;10.166;2022-07-03T03:23:24;18.70;99.90
4993;DHT22;2514;53.524;10.166;2022-07-03T03:25:56;18.60;99.90
4993;DHT22;2514;53.524;10.166;2022-07-03T03:28:24;18.50;99.90
4993;DHT22;2514;53.524;10.166;2022-07-03T03:30:53;18.50;99.90
4993;DHT22;2514;53.524;10.166;2022-07-03T03:33:20;18.50;99.90
4993;DHT22;2514;53.524;10.166;2022-07-03T03:35:47;18.40;99.90
4993;DHT22;2514;53.524;10.166;2022-07-03T03:38:14;18.40;99.90
4993;DHT22;2514;53.524;10.166;2022-07-03T03:40:43;18.40;99.90
4993;DHT22;2514;53.524;10.166;2022-07-03T03:43:10;18.40;99.90
4993;DHT22;2514;53.524;10.166;2022-07-03T03:45:37;18.40;99.90
4993;DHT22;2514;53.524;10.166;2022-07-03T03:48:06;18.40;99.90
4993;DHT22;2514;53.524;10.166;2022-07-03T03:50:33;18.30;99.90
4993;DHT22;2514;53.524;10.166;2022-07-03T03:53:00;18.40;99.90
4993;DHT22;2514;53.524;10.166;2022-07-03T03:55:27;18.40;99.90
4993;DHT22;2514;53.524;10.166;2022-07-03T03:57:54;18.30;99.90
4993;DHT22;2514;53.524;10.166;2022-07-03T04:00:21;18.20;99.90
4993;DHT22;2514;53.524;10.166;2022-07-03T04:02:48;18.20;99.90
4993;DHT22;2514;53.524;10.166;2022-07-03T04:05:16;18.20;99.90
4993;DHT22;2514;53.524;10.166;2022-07-03T04:07:43;18.10;99.90
4993;DHT22;2514;53.524;10.166;2022-07-03T04:10:10;18.20;99.90
4993;DHT22;2514;53.524;10.166;2022-07-03T04:12:37;18.20;99.90
4993;DHT22;2514;53.524;10.166;2022-07-03T04:15:04;18.10;99.90
4993;DHT22;2514;53.524;10.166;2022-07-03T04:17:31;18.20;99.90
4993;DHT22;2514;53.524;10.166;2022-07-03T04:19:58;18.20;99.90
4993;DHT22;2514;53.524;10.166;2022-07-03T04:22:26;18.20;99.90
4993;DHT22;2514;53.524;10.166;2022-07-03T04:24:53;18.20;99.90
4993;DHT22;2514;53.524;10.166;2022-07-03T04:27:20;18.20;99.90
4993;DHT22;2514;53.524;10.166;2022-07-03T04:29:47;18.10;99.90
4993;DHT22;2514;53.524;10.166;2022-07-03T04:32:13;18.20;99.90
4993;DHT22;2514;53.524;10.166;2022-07-03T04:34:40;18.20;99.90
4993;DHT22;2514;53.524;10.166;2022-07-03T04:37:07;18.20;99.90
4993;DHT22;2514;53.524;10.166;2022-07-03T04:39:35;18.30;99.90
4993;DHT22;2514;53.524;10.166;2022-07-03T04:42:03;18.20;99.90
4993;DHT22;2514;53.524;10.166;2022-07-03T04:44:30;18.20;99.90
4993;DHT22;2514;53.524;10.166;2022-07-03T04:46:56;18.30;99.90
4993;DHT22;2514;53.524;10.166;2022-07-03T04:49:24;18.30;99.90
4993;DHT22;2514;53.524;10.166;2022-07-03T04:51:51;18.40;99.90
4993;DHT22;2514;53.524;10.166;2022-07-03T04:54:18;18.50;99.90
4993;DHT22;2514;53.524;10.166;2022-07-03T04:56:50;18.60;99.90
4993;DHT22;2514;53.524;10.166;2022-07-03T04:59:17;18.60;99.90
4993;DHT22;2514;53.524;10.166;2022-07-03T05:01:44;18.70;99.90
4993;DHT22;2514;53.524;10.166;2022-07-03T05:04:13;18.80;99.90
4993;DHT22;2514;53.524;10.166;2022-07-03T05:06:40;18.80;99.90
4993;DHT22;2514;53.524;10.166;2022-07-03T05:09:07;18.90;99.90
4993;DHT22;2514;53.524;10.166;2022-07-03T05:11:33;19.00;99.90
4993;DHT22;2514;53.524;10.166;2022-07-03T05:14:02;19.00;99.90
4993;DHT22;2514;53.524;10.166;2022-07-03T05:16:30;19.10;99.90
4993;DHT22;2514;53.524;10.166;2022-07-03T05:18:57;19.20;99.90
4993;DHT22;2514;53.524;10.166;2022-07-03T05:21:23;19.10;99.90
4993;DHT22;2514;53.524;10.166;2022-07-03T05:23:50;19.10;99.90
4993;DHT22;2514;53.524;10.166;2022-07-03T05:26:17;19.00;99.90
4993;DHT22;2514;53.524;10.166;2022-07-03T05:28:44;18.90;99.90
4993;DHT22;2514;53.524;10.166;2022-07-03T05:31:13;18.80;99.90
4993;DHT22;2514;53.524;10.166;2022-07-03T05:33:40;18.70;99.90
4993;DHT22;2514;53.524;10.166;2022-07-03T05:36:07;18.50;99.90
4993;DHT22;2514;53.524;10.166;2022-07-03T05:38:34;18.50;99.90
4993;DHT22;2514;53.524;10.166;2022-07-03T05:41:18;18.40;99.90
4993;DHT22;2514;53.524;10.166;2022-07-03T05:43:45;18.40;99.90
4993;DHT22;2514;53.524;10.166;2022-07-03T05:46:13;18.40;99.90
4993;DHT22;2514;53.524;10.166;2022-07-03T05:48:40;18.50;99.90
4993;DHT22;2514;53.524;10.166;2022-07-03T05:51:07;18.60;99.90
4993;DHT22;2514;53.524;10.166;2022-07-03T05:53:34;18.70;99.90
4993;DHT22;2514;53.524;10.166;2022-07-03T05:56:01;18.80;99.90
4993;DHT22;2514;53.524;10.166;2022-07-03T05:58:28;18.90;99.90
4993;DHT22;2514;53.524;10.166;2022-07-03T06:00:55;18.90;99.90
4993;DHT22;2514;53.524;10.166;2022-07-03T06:03:23;18.90;99.90
4993;DHT22;2514;53.524;10.166;2022-07-03T06:05:50;18.90;99.90
4993;DHT22;2514;53.524;10.166;2022-07-03T06:08:16;19.00;99.90
4993;DHT22;2514;53.524;10.166;2022-07-03T06:10:43;19.10;99.90
4993;DHT22;2514;53.524;10.166;2022-07-03T06:13:10;19.30;99.90
4993;DHT22;2514;53.524;10.166;2022-07-03T06:15:37;19.40;99.90
4993;DHT22;2514;53.524;10.166;2022-07-03T06:18:04;19.50;99.90
4993;DHT22;2514;53.524;10.166;2022-07-03T06:20:32;19.60;99.90
4993;DHT22;2514;53.524;10.166;2022-07-03T06:22:59;19.70;99.90
4993;DHT22;2514;53.524;10.166;2022-07-03T06:25:26;19.70;99.90
4993;DHT22;2514;53.524;10.166;2022-07-03T06:27:53;19.70;99.90
4993;DHT22;2514;53.524;10.166;2022-07-03T06:30:19;19.70;99.90
4993;DHT22;2514;53.524;10.166;2022-07-03T06:32:46;19.90;99.90
4993;DHT22;2514;53.524;10.166;2022-07-03T06:35:13;20.00;99.90
4993;DHT22;2514;53.524;10.166;2022-07-03T06:37:41;20.10;99.90
4993;DHT22;2514;53.524;10.166;2022-07-03T06:40:09;20.20;99.90
4993;DHT22;2514;53.524;10.166;2022-07-03T06:42:36;20.30;99.90
4993;DHT22;2514;53.524;10.166;2022-07-03T06:45:04;20.30;99.90
4993;DHT22;2514;53.524;10.166;2022-07-03T06:47:31;20.40;99.90
4993;DHT22;2514;53.524;10.166;2022-07-03T06:50:03;20.40;99.90
4993;DHT22;2514;53.524;10.166;2022-07-03T06:52:29;20.50;99.90
4993;DHT22;2514;53.524;10.166;2022-07-03T06:54:58;20.60;99.90
4993;DHT22;2514;53.524;10.166;2022-07-03T06:57:25;20.70;1.00
4993;DHT22;2514;53.524;10.166;2022-07-03T06:59:51;20.70;1.00
4993;DHT22;2514;53.524;10.166;2022-07-03T07:02:18;20.70;99.90
4993;DHT22;2514;53.524;10.166;2022-07-03T07:04:45;20.70;1.00
4993;DHT22;2514;53.524;10.166;2022-07-03T07:07:12;20.80;1.00
4993;DHT22;2514;53.524;10.166;2022-07-03T07:09:39;20.80;99.90
4993;DHT22;2514;53.524;10.166;2022-07-03T07:12:08;20.70;99.90
4993;DHT22;2514;53.524;10.166;2022-07-03T07:14:35;20.90;1.00
4993;DHT22;2514;53.524;10.166;2022-07-03T07:17:02;21.00;1.00
4993;DHT22;2514;53.524;10.166;2022-07-03T07:19:29;21.10;1.00
4993;DHT22;2514;53.524;10.166;2022-07-03T07:21:56;21.20;1.00
4993;DHT22;2514;53.524;10.166;2022-07-03T07:24:23;21.30;1.00
4993;DHT22;2514;53.524;10.166;2022-07-03T07:26:50;21.30;1.00
4993;DHT22;2514;53.524;10.166;2022-07-03T07:29:18;21.40;1.00
4993;DHT22;2514;53.524;10.166;2022-07-03T07:31:45;21.50;1.00
4993;DHT22;2514;53.524;10.166;2022-07-03T07:34:12;21.60;1.00
4993;DHT22;2514;53.524;10.166;2022-07-03T07:36:39;21.60;1.00
4993;DHT22;2514;53.524;10.166;2022-07-03T07:39:06;21.60;1.00
4993;DHT22;2514;53.524;10.166;2022-07-03T07:41:33;21.60;1.00
4993;DHT22;2514;53.524;10.166;2022-07-03T07:44:00;21.70;1.00
4993;DHT22;2514;53.524;10.166;2022-07-03T07:46:28;21.90;1.00
4993;DHT22;2514;53.524;10.166;2022-07-03T07:48:55;21.90;1.00
4993;DHT22;2514;53.524;10.166;2022-07-03T07:51:22;21.80;1.00
4993;DHT22;2514;53.524;10.166;2022-07-03T07:53:49;21.90;1.00
4993;DHT22;2514;53.524;10.166;2022-07-03T07:56:18;22.00;1.00
4993;DHT22;2514;53.524;10.166;2022-07-03T07:58:44;22.30;1.00
4993;DHT22;2514;53.524;10.166;2022-07-03T08:01:11;22.30;1.00
4993;DHT22;2514;53.524;10.166;2022-07-03T08:03:57;22.40;1.00
4993;DHT22;2514;53.524;10.166;2022-07-03T08:06:42;22.30;1.00
4993;DHT22;2514;53.524;10.166;2022-07-03T08:09:08;22.50;1.00
4993;DHT22;2514;53.524;10.166;2022-07-03T08:11:35;22.70;1.00
4993;DHT22;2514;53.524;10.166;2022-07-03T08:14:02;22.80;1.00
4993;DHT22;2514;53.524;10.166;2022-07-03T08:16:30;22.90;1.00
4993;DHT22;2514;53.524;10.166;2022-07-03T08:18:58;23.00;1.00
4993;DHT22;2514;53.524;10.166;2022-07-03T08:21:25;23.20;1.00
4993;DHT22;2514;53.524;10.166;2022-07-03T08:23:52;23.40;1.00
4993;DHT22;2514;53.524;10.166;2022-07-03T08:26:19;23.60;1.00
4993;DHT22;2514;53.524;10.166;2022-07-03T08:28:46;23.70;1.00
4993;DHT22;2514;53.524;10.166;2022-07-03T08:31:12;23.60;1.00
4993;DHT22;2514;53.524;10.166;2022-07-03T08:33:39;23.60;1.00
4993;DHT22;2514;53.524;10.166;2022-07-03T08:36:07;23.70;1.00
4993;DHT22;2514;53.524;10.166;2022-07-03T08:38:35;23.90;1.00
4993;DHT22;2514;53.524;10.166;2022-07-03T08:41:03;24.00;1.00
4993;DHT22;2514;53.524;10.166;2022-07-03T08:43:30;24.10;1.00
4993;DHT22;2514;53.524;10.166;2022-07-03T08:45:59;24.10;1.00
4993;DHT22;2514;53.524;10.166;2022-07-03T08:48:27;24.20;1.00
4993;DHT22;2514;53.524;10.166;2022-07-03T08:50:57;24.50;1.00
4993;DHT22;2514;53.524;10.166;2022-07-03T08:53:26;25.00;1.00
4993;DHT22;2514;53.524;10.166;2022-07-03T08:55:53;25.70;1.00
4993;DHT22;2514;53.524;10.166;2022-07-03T08:58:22;27.30;1.00
4993;DHT22;2514;53.524;10.166;2022-07-03T09:00:50;28.30;1.00
4993;DHT22;2514;53.524;10.166;2022-07-03T09:03:17;29.70;1.00
4993;DHT22;2514;53.524;10.166;2022-07-03T09:05:46;28.90;1.00
4993;DHT22;2514;53.524;10.166;2022-07-03T09:08:15;28.10;1.00
4993;DHT22;2514;53.524;10.166;2022-07-03T09:10:45;27.70;1.00
4993;DHT22;2514;53.524;10.166;2022-07-03T09:13:12;27.20;1.00
4993;DHT22;2514;53.524;10.166;2022-07-03T09:15:39;27.00;1.00
4993;DHT22;2514;53.524;10.166;2022-07-03T09:18:07;28.20;1.00
4993;DHT22;2514;53.524;10.166;2022-07-03T09:20:36;30.50;1.00
4993;DHT22;2514;53.524;10.166;2022-07-03T09:23:16;32.40;1.00
4993;DHT22;2514;53.524;10.166;2022-07-03T09:25:55;31.90;1.00
4993;DHT22;2514;53.524;10.166;2022-07-03T09:28:23;30.80;1.00
4993;DHT22;2514;53.524;10.166;2022-07-03T09:30:57;30.00;1.00
4993;DHT22;2514;53.524;10.166;2022-07-03T09:33:24;30.40;1.00
4993;DHT22;2514;53.524;10.166;2022-07-03T09:35:53;31.30;1.00
4993;DHT22;2514;53.524;10.166;2022-07-03T09:38:21;31.20;1.00
4993;DHT22;2514;53.524;10.166;2022-07-03T09:40:49;31.30;1.00
4993;DHT22;2514;53.524;10.166;2022-07-03T09:43:23;29.90;1.00
4993;DHT22;2514;53.524;10.166;2022-07-03T09:45:53;29.20;1.00
4993;DHT22;2514;53.524;10.166;2022-07-03T09:48:30;28.80;1.00
4993;DHT22;2514;53.524;10.166;2022-07-03T09:51:16;29.10;1.00
4993;DHT22;2514;53.524;10.166;2022-07-03T09:53:45;30.10;1.00
4993;DHT22;2514;53.524;10.166;2022-07-03T09:56:12;29.60;1.00
4993;DHT22;2514;53.524;10.166;2022-07-03T09:58:40;29.20;1.00
4993;DHT22;2514;53.524;10.166;2022-07-03T10:01:17;29.40;1.00
4993;DHT22;2514;53.524;10.166;2022-07-03T10:03:44;28.60;1.00
4993;DHT22;2514;53.524;10.166;2022-07-03T10:06:11;28.20;99.90
4993;DHT22;2514;53.524;10.166;2022-07-03T10:08:38;27.60;99.90
4993;DHT22;2514;53.524;10.166;2022-07-03T10:11:06;27.60;99.90
4993;DHT22;2514;53.524;10.166;2022-07-03T10:13:33;28.40;99.90
4993;DHT22;2514;53.524;10.166;2022-07-03T10:16:05;29.20;1.00
4993;DHT22;2514;53.524;10.166;2022-07-03T10:18:35;28.80;99.90
4993;DHT22;2514;53.524;10.166;2022-07-03T10:21:05;28.10;99.90
4993;DHT22;2514;53.524;10.166;2022-07-03T10:23:32;27.90;99.90
4993;DHT22;2514;53.524;10.166;2022-07-03T10:25:59;28.50;99.90
4993;DHT22;2514;53.524;10.166;2022-07-03T10:28:27;28.30;99.90
4993;DHT22;2514;53.524;10.166;2022-07-03T10:30:57;27.50;99.90
4993;DHT22;2514;53.524;10.166;2022-07-03T10:33:27;27.00;99.90
4993;DHT22;2514;53.524;10.166;2022-07-03T10:35:54;26.50;99.90
4993;DHT22;2514;53.524;10.166;2022-07-03T10:38:35;26.70;99.90
4993;DHT22;2514;53.524;10.166;2022-07-03T10:41:05;27.70;99.90
4993;DHT22;2514;53.524;10.166;2022-07-03T10:43:52;27.80;99.90
4993;DHT22;2514;53.524;10.166;2022-07-03T10:46:37;28.60;99.90
4993;DHT22;2514;53.524;10.166;2022-07-03T10:49:06;29.00;1.00
4993;DHT22;2514;53.524;10.166;2022-07-03T10:51:55;30.40;1.00
4993;DHT22;2514;53.524;10.166;2022-07-03T10:54:23;32.70;1.00
4993;DHT22;2514;53.524;10.166;2022-07-03T10:57:15;34.50;1.00
4993;DHT22;2514;53.524;10.166;2022-07-03T11:00:14;33.00;1.00
4993;DHT22;2514;53.524;10.166;2022-07-03T11:02:42;32.50;1.00
4993;DHT22;2514;53.524;10.166;2022-07-03T11:05:25;34.00;1.00
4993;DHT22;2514;53.524;10.166;2022-07-03T11:08:08;32.90;1.00
4993;DHT22;2514;53.524;10.166;2022-07-03T11:10:38;33.00;1.00
4993;DHT22;2514;53.524;10.166;2022-07-03T11:13:13;32.50;1.00
4993;DHT22;2514;53.524;10.166;2022-07-03T11:15:46;32.70;1.00
4993;DHT22;2514;53.524;10.166;2022-07-03T11:18:18;32.80;1.00
4993;DHT22;2514;53.524;10.166;2022-07-03T11:21:15;32.10;1.00
4993;DHT22;2514;53.524;10.166;2022-07-03T11:26:45;31.70;99.90
4993;DHT22;2514;53.524;10.166;2022-07-03T11:29:28;31.50;99.90
4993;DHT22;2514;53.524;10.166;2022-07-03T11:31:55;31.50;99.90
4993;DHT22;2514;53.524;10.166;2022-07-03T11:34:22;31.50;99.90
4993;DHT22;2514;53.524;10.166;2022-07-03T11:36:50;32.50;99.90
4993;DHT22;2514;53.524;10.166;2022-07-03T11:39:19;33.30;1.00
4993;DHT22;2514;53.524;10.166;2022-07-03T11:41:47;33.00;99.90
4993;DHT22;2514;53.524;10.166;2022-07-03T11:44:19;33.80;1.00
4993;DHT22;2514;53.524;10.166;2022-07-03T11:46:49;34.50;1.00
4993;DHT22;2514;53.524;10.166;2022-07-03T11:49:17;34.70;1.00
4993;DHT22;2514;53.524;10.166;2022-07-03T11:51:56;35.60;1.00
4993;DHT22;2514;53.524;10.166;2022-07-03T11:54:23;36.20;1.00
4993;DHT22;2514;53.524;10.166;2022-07-03T11:56:50;36.70;1.00
4993;DHT22;2514;53.524;10.166;2022-07-03T11:59:17;36.20;1.00
4993;DHT22;2514;53.524;10.166;2022-07-03T12:01:45;35.50;1.00
4993;DHT22;2514;53.524;10.166;2022-07-03T12:04:13;32.90;99.90
4993;DHT22;2514;53.524;10.166;2022-07-03T12:06:43;33.90;99.90
4993;DHT22;2514;53.524;10.166;2022-07-03T12:09:22;34.40;99.90
4993;DHT22;2514;53.524;10.166;2022-07-03T12:11:53;36.00;1.00
4993;DHT22;2514;53.524;10.166;2022-07-03T12:14:33;35.70;1.00
4993;DHT22;2514;53.524;10.166;2022-07-03T12:17:00;35.10;99.90
4993;DHT22;2514;53.524;10.166;2022-07-03T12:19:27;36.10;1.00
4993;DHT22;2514;53.524;10.166;2022-07-03T12:21:54;33.60;99.90
4993;DHT22;2514;53.524;10.166;2022-07-03T12:24:22;32.70;99.90
4993;DHT22;2514;53.524;10.166;2022-07-03T12:26:49;32.90;99.90
4993;DHT22;2514;53.524;10.166;2022-07-03T12:29:16;33.30;99.90
4993;DHT22;2514;53.524;10.166;2022-07-03T12:31:45;33.10;99.90
4993;DHT22;2514;53.524;10.166;2022-07-03T12:34:13;32.80;99.90
4993;DHT22;2514;53.524;10.166;2022-07-03T12:36:42;33.20;99.90
4993;DHT22;2514;53.524;10.166;2022-07-03T12:39:21;34.10;99.90
4993;DHT22;2514;53.524;10.166;2022-07-03T12:41:48;34.50;99.90
4993;DHT22;2514;53.524;10.166;2022-07-03T12:44:15;33.70;99.90
4993;DHT22;2514;53.524;10.166;2022-07-03T12:46:46;33.70;99.90
4993;DHT22;2514;53.524;10.166;2022-07-03T12:49:14;33.50;99.90
4993;DHT22;2514;53.524;10.166;2022-07-03T12:51:44;32.60;99.90
4993;DHT22;2514;53.524;10.166;2022-07-03T12:54:13;32.20;99.90
4993;DHT22;2514;53.524;10.166;2022-07-03T12:56:43;32.90;99.90
4993;DHT22;2514;53.524;10.166;2022-07-03T12:59:25;33.80;99.90
4993;DHT22;2514;53.524;10.166;2022-07-03T13:02:02;34.50;99.90
4993;DHT22;2514;53.524;10.166;2022-07-03T13:04:31;34.00;99.90
4993;DHT22;2514;53.524;10.166;2022-07-03T13:07:01;34.20;99.90
4993;DHT22;2514;53.524;10.166;2022-07-03T13:09:29;32.90;99.90
4993;DHT22;2514;53.524;10.166;2022-07-03T13:11:57;32.20;99.90
4993;DHT22;2514;53.524;10.166;2022-07-03T13:14:24;31.80;99.90
4993;DHT22;2514;53.524;10.166;2022-07-03T13:16:52;32.30;99.90
4993;DHT22;2514;53.524;10.166;2022-07-03T13:19:20;32.70;99.90
4993;DHT22;2514;53.524;10.166;2022-07-03T13:21:49;32.50;99.90
4993;DHT22;2514;53.524;10.166;2022-07-03T13:24:17;31.40;99.90
4993;DHT22;2514;53.524;10.166;2022-07-03T13:26:46;31.20;99.90
4993;DHT22;2514;53.524;10.166;2022-07-03T13:29:15;31.50;99.90
4993;DHT22;2514;53.524;10.166;2022-07-03T13:31:42;31.30;99.90
4993;DHT22;2514;53.524;10.166;2022-07-03T13:34:09;32.00;99.90
4993;DHT22;2514;53.524;10.166;2022-07-03T13:36:36;32.20;99.90
4993;DHT22;2514;53.524;10.166;2022-07-03T13:39:03;32.40;99.90
4993;DHT22;2514;53.524;10.166;2022-07-03T13:41:29;33.00;99.90
4993;DHT22;2514;53.524;10.166;2022-07-03T13:43:56;31.30;99.90
4993;DHT22;2514;53.524;10.166;2022-07-03T13:46:25;31.60;99.90
4993;DHT22;2514;53.524;10.166;2022-07-03T13:48:52;31.80;99.90
4993;DHT22;2514;53.524;10.166;2022-07-03T13:51:19;30.90;99.90
4993;DHT22;2514;53.524;10.166;2022-07-03T13:53:46;30.60;99.90
4993;DHT22;2514;53.524;10.166;2022-07-03T13:56:14;31.20;99.90
4993;DHT22;2514;53.524;10.166;2022-07-03T13:58:41;31.80;99.90
4993;DHT22;2514;53.524;10.166;2022-07-03T14:01:08;31.30;99.90
4993;DHT22;2514;53.524;10.166;2022-07-03T14:03:36;31.20;99.90
4993;DHT22;2514;53.524;10.166;2022-07-03T14:06:03;31.00;99.90
4993;DHT22;2514;53.524;10.166;2022-07-03T14:08:30;31.40;99.90
4993;DHT22;2514;53.524;10.166;2022-07-03T14:10:57;31.40;99.90
4993;DHT22;2514;53.524;10.166;2022-07-03T14:13:24;31.10;99.90
4993;DHT22;2514;53.524;10.166;2022-07-03T14:15:51;31.00;99.90
4993;DHT22;2514;53.524;10.166;2022-07-03T14:18:18;30.90;99.90
4993;DHT22;2514;53.524;10.166;2022-07-03T14:20:46;30.70;99.90
4993;DHT22;2514;53.524;10.166;2022-07-03T14:23:13;31.20;99.90
4993;DHT22;2514;53.524;10.166;2022-07-03T14:25:40;31.20;99.90
4993;DHT22;2514;53.524;10.166;2022-07-03T14:28:07;31.20;99.90
4993;DHT22;2514;53.524;10.166;2022-07-03T14:30:51;31.10;99.90
4993;DHT22;2514;53.524;10.166;2022-07-03T14:33:35;30.70;99.90
4993;DHT22;2514;53.524;10.166;2022-07-03T14:36:04;31.30;99.90
4993;DHT22;2514;53.524;10.166;2022-07-03T14:38:31;32.10;99.90
4993;DHT22;2514;53.524;10.166;2022-07-03T14:40:58;32.00;99.90
4993;DHT22;2514;53.524;10.166;2022-07-03T14:43:25;31.50;99.90
4993;DHT22;2514;53.524;10.166;2022-07-03T14:45:52;31.40;99.90
4993;DHT22;2514;53.524;10.166;2022-07-03T14:48:19;31.50;99.90
4993;DHT22;2514;53.524;10.166;2022-07-03T14:50:46;31.50;99.90
4993;DHT22;2514;53.524;10.166;2022-07-03T14:53:14;31.10;99.90
4993;DHT22;2514;53.524;10.166;2022-07-03T14:55:42;31.00;90.80
4993;DHT22;2514;53.524;10.166;2022-07-03T14:58:14;31.10;96.40
4993;DHT22;2514;53.524;10.166;2022-07-03T15:00:47;31.00;96.60
4993;DHT22;2514;53.524;10.166;2022-07-03T15:03:17;31.40;99.90
4993;DHT22;2514;53.524;10.166;2022-07-03T15:05:46;31.30;99.90
4993;DHT22;2514;53.524;10.166;2022-07-03T15:08:29;31.30;99.90
4993;DHT22;2514;53.524;10.166;2022-07-03T15:11:02;31.40;99.90
4993;DHT22;2514;53.524;10.166;2022-07-03T15:13:30;31.30;99.90
4993;DHT22;2514;53.524;10.166;2022-07-03T15:15:59;31.40;99.90
4993;DHT22;2514;53.524;10.166;2022-07-03T15:18:28;31.70;99.90
4993;DHT22;2514;53.524;10.166;2022-07-03T15:20:55;31.50;99.90
4993;DHT22;2514;53.524;10.166;2022-07-03T15:23:25;31.40;98.70
4993;DHT22;2514;53.524;10.166;2022-07-03T15:25:54;31.20;78.60
4993;DHT22;2514;53.524;10.166;2022-07-03T15:28:23;31.00;72.80
4993;DHT22;2514;53.524;10.166;2022-07-03T15:30:52;31.20;88.80
4993;DHT22;2514;53.524;10.166;2022-07-03T15:33:23;31.00;59.40
4993;DHT22;2514;53.524;10.166;2022-07-03T15:35:53;30.70;17.80
4993;DHT22;2514;53.524;10.166;2022-07-03T15:38:34;30.50;8.10
4993;DHT22;2514;53.524;10.166;2022-07-03T15:41:03;30.50;2.90
4993;DHT22;2514;53.524;10.166;2022-07-03T15:43:47;30.50;15.70
4993;DHT22;2514;53.524;10.166;2022-07-03T15:46:27;30.10;1.00
4993;DHT22;2514;53.524;10.166;2022-07-03T15:49:23;29.70;1.00
4993;DHT22;2514;53.524;10.166;2022-07-03T15:52:01;29.40;1.00
4993;DHT22;2514;53.524;10.166;2022-07-03T15:54:39;29.10;1.00
4993;DHT22;2514;53.524;10.166;2022-07-03T15:57:11;29.00;1.00
4993;DHT22;2514;53.524;10.166;2022-07-03T15:59:40;29.30;1.00
4993;DHT22;2514;53.524;10.166;2022-07-03T16:02:10;29.40;1.00
4993;DHT22;2514;53.524;10.166;2022-07-03T16:04:54;29.10;1.00
4993;DHT22;2514;53.524;10.166;2022-07-03T16:07:25;29.20;1.00
4993;DHT22;2514;53.524;10.166;2022-07-03T16:09:54;27.90;1.00
4993;DHT22;2514;53.524;10.166;2022-07-03T16:12:22;27.30;1.00